createdAt,value
2022-12-16T00:01:56.489Z,28.23
2022-12-16T00:06:58.142Z,29.88
2022-12-16T00:11:59.715Z,29.75
2022-12-16T00:17:01.260Z,28.88
2022-12-16T00:22:02.846Z,28.70
2022-12-16T00:27:04.447Z,29.75
2022-12-16T00:32:06.486Z,29.92
2022-12-16T00:37:08.248Z,29.00
2022-12-16T00:42:09.873Z,29.40
2022-12-16T00:47:11.463Z,29.85
2022-12-16T00:52:12.972Z,30.52
2022-12-16T00:57:14.553Z,32.50
2022-12-16T01:02:16.750Z,33.42
2022-12-16T01:07:18.417Z,33.33
2022-12-16T01:12:19.971Z,32.75
2022-12-16T01:17:21.569Z,32.08
2022-12-16T01:22:23.247Z,31.65
2022-12-16T01:27:24.822Z,35.97
2022-12-16T01:32:26.417Z,36.95
2022-12-16T01:37:28.368Z,35.92
2022-12-16T01:42:32.731Z,34.90
2022-12-16T01:47:34.345Z,35.00
2022-12-16T01:52:42.583Z,34.83
2022-12-16T01:57:50.777Z,33.70
2022-12-16T02:02:54.005Z,35.92
2022-12-16T02:07:58.637Z,33.80
2022-12-16T02:13:15.928Z,34.38
2022-12-16T02:18:36.562Z,33.92
2022-12-16T02:23:38.050Z,33.30
2022-12-16T02:28:55.199Z,34.72
2022-12-16T02:34:26.622Z,35.42
2022-12-16T02:39:37.197Z,32.78
2022-12-16T02:44:55.149Z,33.30
2022-12-16T02:49:57.713Z,29.70
2022-12-16T02:55:07.793Z,30.77
2022-12-16T03:00:13.222Z,31.50
2022-12-16T03:05:18.529Z,31.88
2022-12-16T03:10:25.363Z,30.75
2022-12-16T03:15:30.846Z,28.97
2022-12-16T03:20:40.218Z,29.80
2022-12-16T03:25:45.460Z,30.77
2022-12-16T03:30:57.148Z,29.40
2022-12-16T03:36:13.010Z,30.85
2022-12-16T03:41:17.333Z,28.85
2022-12-16T03:46:19.161Z,29.23
2022-12-16T03:51:20.811Z,30.63
2022-12-16T03:56:22.462Z,29.85
2022-12-16T04:01:24.483Z,29.75
2022-12-16T04:06:26.064Z,29.92
2022-12-16T04:11:46.357Z,30.48
2022-12-16T04:17:07.435Z,30.90
2022-12-16T04:22:44.899Z,31.48
2022-12-16T04:27:49.382Z,30.05
2022-12-16T04:33:14.320Z,32.00
2022-12-16T04:38:45.145Z,32.22
2022-12-16T04:44:06.223Z,33.05
2022-12-16T04:49:26.873Z,33.30
2022-12-16T04:54:47.076Z,31.83
2022-12-16T05:00:07.338Z,31.90
2022-12-16T05:05:27.617Z,31.55
2022-12-16T05:10:47.831Z,31.38
2022-12-16T05:16:08.080Z,30.85
2022-12-16T05:21:28.506Z,30.75
2022-12-16T05:26:48.689Z,30.75
2022-12-16T05:32:08.871Z,31.20
2022-12-16T05:37:28.911Z,30.25
2022-12-16T05:42:49.293Z,28.88
2022-12-16T05:48:09.526Z,29.25
2022-12-16T05:53:30.031Z,29.80
2022-12-16T05:58:50.706Z,32.60
2022-12-16T06:04:17.081Z,32.03
2022-12-16T06:09:37.830Z,31.05
2022-12-16T06:14:57.944Z,30.90
2022-12-16T06:20:18.172Z,30.90
2022-12-16T06:25:38.580Z,33.92
2022-12-16T06:30:58.875Z,31.38
2022-12-16T06:36:19.109Z,29.13
2022-12-16T06:41:39.417Z,31.48
2022-12-16T06:46:59.722Z,30.92
2022-12-16T06:52:19.849Z,29.95
2022-12-16T06:57:40.089Z,28.40
2022-12-16T07:03:00.454Z,29.23
2022-12-16T07:08:20.949Z,29.98
2022-12-16T07:13:41.218Z,29.38
2022-12-16T07:19:01.458Z,28.83
2022-12-16T07:24:22.923Z,27.30
2022-12-16T07:29:42.983Z,26.30
2022-12-16T07:35:03.268Z,26.17
2022-12-16T07:40:24.069Z,26.13
2022-12-16T07:45:45.410Z,25.38
2022-12-16T07:51:05.695Z,26.08
2022-12-16T07:56:27.028Z,25.40
2022-12-16T08:01:47.450Z,25.02
2022-12-16T08:07:07.726Z,23.98
2022-12-16T08:12:27.835Z,23.60
2022-12-16T08:17:48.135Z,24.80
2022-12-16T08:23:08.117Z,22.42
2022-12-16T08:28:28.844Z,23.10
2022-12-16T08:33:49.041Z,24.40
2022-12-16T08:39:09.270Z,24.67
2022-12-16T08:44:29.413Z,24.02
2022-12-16T08:49:49.723Z,24.25
2022-12-16T08:55:09.869Z,22.80
2022-12-16T09:00:30.613Z,23.98
2022-12-16T09:05:50.863Z,23.08
2022-12-16T09:11:11.130Z,21.55
2022-12-16T09:16:31.353Z,22.13
2022-12-16T09:21:52.352Z,21.38
2022-12-16T09:27:14.994Z,21.83
2022-12-16T09:32:35.330Z,20.23
2022-12-16T09:37:55.496Z,20.75
2022-12-16T09:43:42.076Z,20.30
2022-12-16T09:49:43.791Z,15.40
2022-12-16T09:55:05.062Z,19.20
2022-12-16T10:00:35.745Z,19.80
2022-12-16T10:06:23.189Z,19.88
2022-12-16T10:17:38.819Z,19.08
2022-12-16T10:23:13.448Z,20.00
2022-12-16T10:28:42.627Z,17.90
2022-12-16T10:34:07.289Z,18.55
2022-12-16T10:39:50.251Z,17.77
2022-12-16T10:45:16.253Z,16.40
2022-12-16T10:50:36.585Z,18.30
2022-12-16T10:56:04.171Z,18.10
2022-12-16T11:01:41.155Z,17.17
2022-12-16T11:07:01.517Z,16.73
2022-12-16T11:12:48.387Z,15.77
2022-12-16T11:18:21.155Z,16.70
2022-12-16T11:23:44.126Z,17.75
2022-12-16T11:29:04.325Z,17.00
2022-12-16T11:34:24.642Z,14.73
2022-12-16T11:39:48.915Z,15.73
2022-12-16T11:45:20.361Z,15.00
2022-12-16T11:50:43.125Z,15.00
2022-12-16T11:56:15.429Z,14.90
2022-12-16T12:01:45.524Z,15.35
2022-12-16T12:07:25.218Z,14.73
2022-12-16T12:13:07.596Z,13.75
2022-12-16T12:18:36.868Z,13.00
2022-12-16T12:24:08.285Z,10.82
2022-12-16T12:29:40.715Z,10.60
2022-12-16T12:35:13.092Z,10.15
2022-12-16T12:40:53.046Z,9.25
2022-12-16T12:46:27.362Z,9.93
2022-12-16T12:52:14.548Z,11.32
2022-12-16T12:57:40.059Z,9.85
2022-12-16T13:03:22.331Z,9.48
2022-12-16T13:09:09.370Z,9.30
2022-12-16T13:14:51.748Z,9.48
2022-12-16T13:20:14.625Z,10.18
2022-12-16T13:25:57.921Z,9.60
2022-12-16T13:31:25.688Z,9.20
2022-12-16T13:36:53.546Z,9.10
2022-12-16T13:42:18.901Z,10.57
2022-12-16T13:47:51.980Z,9.88
2022-12-16T13:53:17.332Z,9.30
2022-12-16T13:59:04.077Z,9.73
2022-12-16T14:04:28.908Z,7.43
2022-12-16T14:09:56.366Z,9.35
2022-12-16T14:15:45.968Z,9.85
2022-12-16T14:21:13.201Z,9.48
2022-12-16T14:26:34.554Z,9.98
2022-12-16T14:32:00.369Z,10.27
2022-12-16T14:37:30.826Z,10.05
2022-12-16T14:42:51.199Z,10.25
2022-12-16T14:48:11.856Z,10.25
2022-12-16T14:53:37.028Z,9.45
2022-12-16T14:59:17.355Z,9.57
2022-12-16T15:04:40.091Z,11.25
2022-12-16T15:10:08.755Z,10.27
2022-12-16T15:15:37.360Z,9.90
2022-12-16T15:21:21.241Z,10.07
2022-12-16T15:26:44.714Z,9.45
2022-12-16T15:32:05.177Z,9.63
2022-12-16T15:37:44.424Z,10.10
2022-12-16T15:43:09.932Z,10.75
2022-12-16T15:48:38.100Z,10.35
2022-12-16T15:53:58.582Z,9.90
2022-12-16T15:59:43.054Z,9.73
2022-12-16T16:05:02.916Z,11.10
2022-12-16T16:10:39.653Z,10.75
2022-12-16T16:15:59.640Z,8.07
2022-12-16T16:21:33.641Z,10.82
2022-12-16T16:26:53.779Z,11.07
2022-12-16T16:32:13.798Z,11.05
2022-12-16T16:37:37.667Z,12.02
2022-12-16T16:42:58.087Z,11.93
2022-12-16T16:48:38.758Z,12.68
2022-12-16T16:53:58.693Z,12.02
2022-12-16T16:59:18.921Z,14.63
2022-12-16T17:04:39.254Z,15.48
2022-12-16T17:10:01.247Z,16.70
2022-12-16T17:15:33.159Z,17.48
2022-12-16T17:20:53.348Z,17.27
2022-12-16T17:26:13.489Z,20.10
2022-12-16T17:31:33.640Z,19.40
2022-12-16T17:36:53.915Z,19.90
2022-12-16T17:42:13.963Z,20.35
2022-12-16T17:47:34.248Z,21.02
2022-12-16T17:52:54.472Z,21.02
2022-12-16T17:58:14.678Z,22.17
2022-12-16T18:03:35.282Z,21.42
2022-12-16T18:09:03.333Z,22.98
2022-12-16T18:19:44.105Z,21.83
2022-12-16T18:25:04.636Z,22.33
2022-12-16T18:30:25.908Z,22.88
2022-12-16T18:35:46.250Z,23.73
2022-12-16T18:41:06.583Z,24.40
2022-12-16T18:46:26.936Z,23.65
2022-12-16T18:51:47.254Z,24.45
2022-12-16T18:57:07.585Z,24.05
2022-12-16T19:02:27.969Z,23.00
2022-12-16T19:07:48.262Z,23.25
2022-12-16T19:13:08.321Z,25.88
2022-12-16T19:18:30.498Z,21.98
2022-12-16T19:23:50.855Z,22.77
2022-12-16T19:29:11.039Z,23.10
2022-12-16T19:34:31.321Z,23.40
2022-12-16T19:39:51.871Z,24.15
2022-12-16T19:45:12.248Z,24.08
2022-12-16T19:50:32.549Z,24.67
2022-12-16T19:55:52.945Z,25.27
2022-12-16T20:01:13.235Z,24.00
2022-12-16T20:06:33.673Z,23.35
2022-12-16T20:11:54.611Z,24.80
2022-12-16T20:17:16.419Z,25.02
2022-12-16T20:22:36.419Z,24.25
2022-12-16T20:27:56.755Z,23.88
2022-12-16T20:33:18.147Z,24.20
2022-12-16T20:38:38.561Z,24.88
2022-12-16T20:43:58.868Z,24.60
2022-12-16T20:49:19.137Z,26.38
2022-12-16T20:54:39.343Z,24.20
2022-12-16T20:59:59.650Z,24.52
2022-12-16T21:05:20.877Z,26.40
2022-12-16T21:10:41.044Z,23.08
2022-12-16T21:16:01.301Z,26.63
2022-12-16T21:21:21.530Z,24.88
2022-12-16T21:26:41.653Z,24.70
2022-12-16T21:32:01.968Z,25.17
2022-12-16T21:37:22.166Z,24.83
2022-12-16T21:42:44.156Z,25.50
2022-12-16T21:48:04.679Z,27.23
2022-12-16T21:53:24.792Z,25.08
2022-12-16T21:58:45.149Z,24.60
2022-12-16T22:04:05.094Z,24.63
2022-12-16T22:09:25.290Z,25.45
2022-12-16T22:14:45.599Z,24.30
2022-12-16T22:20:05.833Z,24.55
2022-12-16T22:25:26.202Z,25.15
2022-12-16T22:30:46.462Z,24.60
2022-12-16T22:36:06.793Z,25.70
2022-12-16T22:41:27.471Z,25.83
2022-12-16T22:46:48.099Z,26.35
2022-12-16T22:52:08.359Z,25.45
2022-12-16T22:57:29.637Z,26.88
2022-12-16T23:02:49.873Z,25.75
2022-12-16T23:08:10.130Z,26.35
2022-12-16T23:13:31.472Z,24.80
2022-12-16T23:18:52.030Z,23.95
2022-12-16T23:24:12.496Z,25.67
2022-12-16T23:29:32.802Z,24.23
2022-12-16T23:34:53.177Z,23.63
2022-12-16T23:40:13.464Z,25.17
2022-12-16T23:45:33.701Z,23.80
2022-12-16T23:50:53.639Z,25.02
2022-12-16T23:56:18.618Z,24.50
